x

Isle Of Shoals, Nh (iosn3) Weather Station

10:00am - Sun 22nd Jan 2017 All times are EST. -5 hours from GMT.

  • Wind
    23mph, 26mph gusts
  • 空気 Temp 41°f
  • Sea Pressure 1009.5mb
  • Isle Of Shoals, Nh
  • Isle Of Shoals, Nh

More Historic Weather Station data

Upgrade to MSW Pro to gain access to the past 30 days of data for over 8000 Wavebouys and Weather Stations around the globe.

Join Pro

Comparision Forecast

View Surf forecast
   
Sun 01/22 10:00am 23 26 mph 1009.5mb 41f
9:00am 18 21 mph 1009.1mb 42f
8:00am 11 13 mph 1008.6mb 41f
7:00am 8 9 mph 1008.7mb 40f
6:00am 7
mph
1007.3mb 41f
5:00am 8 9 mph 1006.7mb 43f
4:00am 11 13 mph 1006.8mb 42f
3:00am 11 13 mph 1007mb 44f
2:00am 8 9 mph 1006.6mb 44f
1:00am 7 8 mph 1006.6mb 45f
12:00am 11
mph
1006.7mb 47f
Sat 01/21 11:00pm 7 8 mph 1006.9mb 46f
10:00pm 9
mph
1007mb 46f
9:00pm 13 14 mph 1006.8mb 47f
8:00pm 8
mph
1006.8mb 46f
7:00pm 6
mph
1006.9mb 45f
6:00pm 2
mph
1006.8mb 45f
5:00pm 2
mph
1006.6mb 44f
4:00pm 1
mph
1006.2mb 44f
3:00pm 1 2 mph 1006mb 44f
2:00pm 6
mph
1006.5mb 42f
1:00pm 5
mph
1006.5mb 42f
12:00pm 6 7 mph 1007.7mb 41f
11:00am 8 9 mph 1009mb 39f
10:00am 9 10 mph 1009.5mb 39f
9:00am 14 15 mph 1009.9mb 38f
8:00am 15 16 mph 1010mb 39f
7:00am 14 15 mph 1009.8mb 38f
6:00am 18 20 mph 1010.3mb 38f
5:00am 15 17 mph 1010.6mb 38f
4:00am 14 15 mph 1011.4mb 39f
3:00am 16 17 mph 1011.8mb 39f
2:00am 16 17 mph 1012mb 40f
1:00am 15 17 mph 1012.3mb 40f
12:00am 11 13 mph 1012.7mb 40f
Fri 01/20 11:00pm 13 14 mph 1013.1mb 40f
10:00pm 14 15 mph 1013.4mb 41f
9:00pm 11 14 mph 1013.6mb 40f
8:00pm 11 13 mph 1014mb 40f
7:00pm 10 13 mph 1014.4mb 40f
6:00pm 10 11 mph 1014mb 40f
5:00pm 11 13 mph 1014.1mb 40f
4:00pm 10 13 mph 1014.4mb 40f
3:00pm 8 9 mph 1014.5mb 39f
2:00pm 9 10 mph 1014.5mb 39f
1:00pm 6 7 mph 1015mb 39f
12:00pm 7 8 mph 1015.8mb 38f
11:00am 7 8 mph 1016.6mb 38f
10:00am 8 10 mph 1017.1mb 38f
9:00am 11 13 mph 1016.6mb 38f
8:00am 11 14 mph 1016.5mb 38f
7:00am 10 11 mph 1016.3mb 38f
6:00am 10 11 mph 1016.1mb 38f
5:00am 9 10 mph 1016.3mb 38f
4:00am 10 11 mph 1016mb 38f
3:00am 10 11 mph 1015.7mb 39f
2:00am 13 15 mph 1015mb 39f
1:00am 9 10 mph 1015mb 38f
12:00am 14 15 mph 1015.6mb 38f
Thu 01/19 11:00pm 14 15 mph 1016.5mb 38f
10:00pm 15 16 mph 1016.4mb 38f
9:00pm 11 14 mph 1015.9mb 39f
8:00pm 14 15 mph 1015.3mb 39f
7:00pm 13 14 mph 1015.2mb 39f
6:00pm 11 13 mph 1014.3mb 40f
5:00pm 13 14 mph 1013.4mb 41f
4:00pm 14 15 mph 1013.4mb 42f
3:00pm 9 11 mph 1013.2mb 42f
2:00pm 6 7 mph 1013.1mb 40f
1:00pm 7 9 mph 1013.6mb 38f
12:00pm 3 6 mph 1014.1mb 36f
11:00am 6 7 mph 1015mb 34f
10:00am 6 7 mph 1015.6mb 33f
9:00am 6 8 mph 1015.6mb 32f
8:00am 5 7 mph 1015.8mb 32f
7:00am 5 6 mph 1015.4mb 31f
6:00am 3 5 mph 1015.7mb 30f
5:00am 6 8 mph 1015.4mb 30f
4:00am 7 8 mph 1015.6mb 30f
3:00am 8 10 mph 1016mb 30f
2:00am 14 15 mph 1016mb 31f
1:00am 15 17 mph 1016.1mb 30f
12:00am 18 20 mph 1016.2mb 30f
Wed 01/18 11:00pm 17 18 mph 1016.6mb 30f
10:00pm 18 21 mph 1015.8mb 31f
9:00pm 21 23 mph 1017mb 31f
8:00pm 23 25 mph 1017.4mb 32f
7:00pm 22 24 mph 1017.5mb 33f
6:00pm 20 22 mph 1016.7mb 39f
5:00pm 24 25 mph 1015.9mb 39f